Hartford Brainard Airport Hartford US
ICAO: KHFD
IATA: HFD
Category: Medium
Scheduled Services: No

Elevation: 18 ft
TransAlt. 18000 ft.

Airport Communications:
BRADLEY APP/DEP:127.8
ATIS:126.45
BRADLEY CLNC DEL:121.6
CTAF:119.6
GND:121.6
BRAINARD TWR:119.6
UNICOM:122.95

KHFD Zoom In..

If you have problems with the map follow the link
https://www.worldairports.se/pages/airport.php?
ICAO=KHFD

Runways:

(A) RW 02 length 4417 ft width 150 ft
---- / hdg 24

(B) RW 11 length 2314 ft width 71 ft
---- / hdg 114

(C) RW 20 length 4417 ft width 150 ft
---- / hdg 204

(D) RW 29 length 2314 ft width 71 ft
---- / hdg 294

Location; KHFD
Day. 16 / Time. 03.44 Zulu
* Altimeter: 30.06
* Temperature: -02° c. -28.4°f.
* Wind from: 010° Speed 10 kn.
Dewpoint: -02° c.
Visibility: 2 m.
Clouds: Few 800 ft.
Clouds: Overcast 1700 ft.
Conditions: Freezing rain.Conditions: Mist.

KHFD 160344Z 01010KT 2 1/2SM FZRA BR FEW008 OVC017 M02/M02 A3006 RMK AO2 UPB37E38FZRAB38SNE37 P0009 I1000 T10171022


Wind From 010°
Speed 10 kn.

 
 
jpsmedia.com for Web Design worldairports.se 2018   terms of use